Udo Maru — JM6522 — position and weather

sailwx.info

Track history (hours):
 
Tides and Currents Weather Stations Pressure Air Temp Water Temp Dewpoint Dewpoint Depression Visibility Wind Speed Wind Dir Waves Ship Positions

Udo Maru

Last reported at 2016-May-20 01:28 UTC. Time now 2016-May-25 07:16 UTC.
Position N 34°37' E 135°02'.

Length 87 m; draft 4.9 m.

Type: Cargo ship. MMSI: 431600499.

Date/timePositionNaut miles runAvg speedWind from/ knotsBaromVisibWave heightAir tempDewpointWater temp
2016-May-20 01:28N 34°37' E 135°02'9 9.4
2016-May-20 00:33N 34°29' E 135°04'1111.3
2016-May-19 23:33N 34°18' E 134°60'1211.3
2016-May-19 22:32N 34°07' E 135°00'  
2016-May-16 23:21N 34°01' E 134°60'911.5
2016-May-16 22:33N 34°11' E 134°59'1110.9
2016-May-16 21:33N 34°21' E 135°00'7 6.4
2016-May-16 20:28N 34°24' E 135°08'0 0.0
2016-May-16 19:10N 34°24' E 135°08'0 0.0
2016-May-16 16:28N 34°24' E 135°08'0 0.0
2016-May-16 13:28N 34°24' E 135°08'0 0.1
2016-May-16 12:28N 34°24' E 135°08'0 0.0
2016-May-16 09:28N 34°24' E 135°08'0 0.0
2016-May-16 08:16N 34°24' E 135°08'0 0.0
2016-May-16 04:24N 34°24' E 135°08'9 8.1
2016-May-16 03:15N 34°18' E 134°59'3 4.2
2016-May-16 02:32N 34°21' E 134°60'1111.4
2016-May-16 01:33N 34°32' E 135°02'  
2016-May-13 17:05N 34°33' E 134°47'814.7
2016-May-13 16:32N 34°36' E 134°56'1312.9
2016-May-13 15:33N 34°36' E 135°11'1211.8
2016-May-13 14:33N 34°39' E 135°25'1 1.2
2016-May-13 13:33N 34°40' E 135°25'0 0.0
2016-May-13 10:21N 34°40' E 135°25'0 0.0
2016-May-13 09:09N 34°40' E 135°25'0 0.0
2016-May-13 08:33N 34°40' E 135°25'1 0.7
2016-May-13 07:32N 34°40' E 135°25'4 4.0
2016-May-13 06:33N 34°37' E 135°22'4 3.8
2016-May-13 05:33N 34°40' E 135°25'3 3.0
2016-May-13 04:33N 34°37' E 135°23'0 0.0
2016-May-13 03:33N 34°37' E 135°23'0 0.1
2016-May-13 02:33N 34°37' E 135°23'0 0.0
2016-May-13 01:33N 34°37' E 135°23'0 0.0
2016-May-13 00:33N 34°37' E 135°23'0 0.0
2016-May-12 23:33N 34°37' E 135°23'0 0.0
2016-May-12 22:33N 34°37' E 135°23'0 0.0
2016-May-12 21:33N 34°37' E 135°23'0 0.0
2016-May-12 20:33N 34°37' E 135°23'0 0.0
2016-May-12 19:33N 34°37' E 135°23'4 3.6
2016-May-12 18:33N 34°36' E 135°19'1111.0
2016-May-12 17:33N 34°35' E 135°05'  
Track history (hours):
 
Tides and Currents Weather Stations Pressure Air Temp Water Temp Dewpoint Dewpoint Depression Visibility Wind Speed Wind Dir Waves Ship Positions

Udo Maru

Last reported at 2016-May-20 01:28 UTC. Time now 2016-May-25 07:16 UTC.
Position N 34°37' E 135°02'.

Length 87 m; draft 4.9 m.

Type: Cargo ship. MMSI: 431600499.

Date/timePositionNaut miles runAvg speedWind from/ knotsBaromVisibWave heightAir tempDewpointWater temp
2016-May-20 01:28N 34°37' E 135°02'9 9.4
2016-May-20 00:33N 34°29' E 135°04'1111.3
2016-May-19 23:33N 34°18' E 134°60'1211.3
2016-May-19 22:32N 34°07' E 135°00'  
2016-May-16 23:21N 34°01' E 134°60'911.5
2016-May-16 22:33N 34°11' E 134°59'1110.9
2016-May-16 21:33N 34°21' E 135°00'7 6.4
2016-May-16 20:28N 34°24' E 135°08'0 0.0
2016-May-16 19:10N 34°24' E 135°08'0 0.0
2016-May-16 16:28N 34°24' E 135°08'0 0.0
2016-May-16 13:28N 34°24' E 135°08'0 0.1
2016-May-16 12:28N 34°24' E 135°08'0 0.0
2016-May-16 09:28N 34°24' E 135°08'0 0.0
2016-May-16 08:16N 34°24' E 135°08'0 0.0
2016-May-16 04:24N 34°24' E 135°08'9 8.1
2016-May-16 03:15N 34°18' E 134°59'3 4.2
2016-May-16 02:32N 34°21' E 134°60'1111.4
2016-May-16 01:33N 34°32' E 135°02'  
2016-May-13 17:05N 34°33' E 134°47'814.7
2016-May-13 16:32N 34°36' E 134°56'1312.9
2016-May-13 15:33N 34°36' E 135°11'1211.8
2016-May-13 14:33N 34°39' E 135°25'1 1.2
2016-May-13 13:33N 34°40' E 135°25'0 0.0
2016-May-13 10:21N 34°40' E 135°25'0 0.0
2016-May-13 09:09N 34°40' E 135°25'0 0.0
2016-May-13 08:33N 34°40' E 135°25'1 0.7
2016-May-13 07:32N 34°40' E 135°25'4 4.0
2016-May-13 06:33N 34°37' E 135°22'4 3.8
2016-May-13 05:33N 34°40' E 135°25'3 3.0
2016-May-13 04:33N 34°37' E 135°23'0 0.0
2016-May-13 03:33N 34°37' E 135°23'0 0.1
2016-May-13 02:33N 34°37' E 135°23'0 0.0
2016-May-13 01:33N 34°37' E 135°23'0 0.0
2016-May-13 00:33N 34°37' E 135°23'0 0.0
2016-May-12 23:33N 34°37' E 135°23'0 0.0
2016-May-12 22:33N 34°37' E 135°23'0 0.0
2016-May-12 21:33N 34°37' E 135°23'0 0.0
2016-May-12 20:33N 34°37' E 135°23'0 0.0
2016-May-12 19:33N 34°37' E 135°23'4 3.6
2016-May-12 18:33N 34°36' E 135°19'1111.0
2016-May-12 17:33N 34°35' E 135°05'  

Dump ship's entire track history